PHMK

Details ICAO PHMK (MKK)
Name MOLOKAI
Region USA (Hawaii)
Timezone Pacific/Honolulu (UTC-10.0)
Plans Departing 27
Arriving 39
Stats Elevation 454 ft / 138 m (AMSL)
Location 21.152926° -157.096500°
Runways 2
Magnetic Variation 9.515° E
Sunrise 2017-12-12 16:57:51 UTC / 2017-12-12 06:57:51 Local
Sunset 2017-12-13 03:49:39 UTC / 2017-12-12 17:49:39 Local
Advertisement - Login to hide

Runways

ID Width Length Bearing (true) Bearing (mag) Surface Threshold Offset Overrun Length
05 100 ft / 30 m 4,503 ft / 1,373 m 60.21° 50.69° Asphalt 0 ft / 0 m 0 ft / 0 m
17 100 ft / 30 m 3,130 ft / 954 m 179.90° 170.38° Asphalt 427 ft / 130 m 0 ft / 0 m
23 100 ft / 30 m 4,503 ft / 1,373 m 240.21° 230.69° Asphalt 0 ft / 0 m 0 ft / 0 m
35 100 ft / 30 m 3,130 ft / 954 m 359.90° 350.38° Asphalt 0 ft / 0 m 0 ft / 0 m

Map

Weather


0- 5 10 15 20 25 30 35+ Temperature / ° C

Clouds and Precipitation
Forecast for 2017-12-13 00:00 UTC. Updated 23 minutes ago

Ground ~20,000 ft ~40,000 ft Winds

METAR

PHMK 122054Z 19014KT 10SM SCT026 25/19 A3000 RMK AO2 SLP159 T02500194 50005

TAF

PHMK 121740Z 1218/1318 18012KT P6SM SCT025 BKN035 FM122100 23012KT P6SM -SHRA SCT025 BKN045 TEMPO 1223/1224 4SM SHRA BR BKN025 FM130500 32009KT P6SM FEW025 SCT040

Frequencies

Recorded 128.20 MHz ATIS
Ground 121.90 MHz GND
Unicom 125.70 MHz CTAF
Tower 125.70 MHz TWR
Warning: Do not use this data for real-world aviation or navigation. No guarantee of current accuracy is given.